Time;durP1;ratioP1;P1;durP2;ratioP2;P2;SDS_P1;SDS_P2;PMS_P1;PMS_P2;Temp;Humidity;BMP_temperature;BMP_pressure;BME280_temperature;BME280_humidity;BME280_pressure;Samples;Min_cycle;Max_cycle;Signal;HPM_P1;HPM_P2
2021/03/20 00:02:26;;;;;;;12.93;4.90;;;19.70;77.60;;;;;;4983121;28;103139;-55
2021/03/20 00:04:55;;;;;;;11.70;4.20;;;19.70;77.80;;;;;;4988761;28;96031;-54
2021/03/20 00:07:27;;;;;;;9.57;4.50;;;19.80;77.80;;;;;;4983443;28;95490;-56
2021/03/20 00:09:57;;;;;;;13.93;4.47;;;19.70;77.60;;;;;;4989356;28;95943;-53
2021/03/20 00:12:27;;;;;;;13.07;4.60;;;19.80;77.60;;;;;;4986487;28;97307;-55
2021/03/20 00:14:56;;;;;;;14.10;5.18;;;19.80;77.60;;;;;;4982740;28;96194;-51
2021/03/20 00:17:28;;;;;;;9.27;4.68;;;19.70;77.60;;;;;;4978554;28;97757;-54
2021/03/20 00:19:58;;;;;;;15.68;5.85;;;19.80;77.50;;;;;;4987109;28;95593;-54
2021/03/20 00:22:31;;;;;;;18.25;6.47;;;19.80;77.50;;;;;;4984532;28;97681;-53
2021/03/20 00:25:01;;;;;;;25.20;8.27;;;19.80;77.50;;;;;;4986390;28;97750;-53
2021/03/20 00:27:32;;;;;;;13.20;5.28;;;19.80;77.50;;;;;;4985687;28;95729;-50
2021/03/20 00:30:05;;;;;;;18.73;7.20;;;19.80;77.50;;;;;;4988890;28;95933;-53
2021/03/20 00:32:34;;;;;;;18.48;7.20;;;19.80;77.50;;;;;;4985686;28;96822;-55
2021/03/20 00:35:08;;;;;;;18.33;7.45;;;19.80;77.60;;;;;;4988056;28;96393;-54
2021/03/20 00:37:39;;;;;;;21.50;8.35;;;19.90;77.50;;;;;;4985259;28;97735;-54
2021/03/20 00:40:16;;;;;;;23.30;7.70;;;19.90;77.50;;;;;;4988210;28;95302;-53
2021/03/20 00:42:45;;;;;;;19.02;8.07;;;19.90;77.50;;;;;;4983321;28;95885;-55
2021/03/20 00:45:17;;;;;;;22.13;7.13;;;19.90;77.50;;;;;;4985036;28;96620;-53
2021/03/20 00:47:46;;;;;;;;;;;19.90;76.80;;;;;;4982108;28;95929;-55
2021/03/20 00:50:21;;;;;;;18.63;6.50;;;19.90;77.40;;;;;;5003307;28;95328;-54
2021/03/20 00:52:52;;;;;;;25.73;7.60;;;20.00;77.40;;;;;;4981261;28;96040;-55
2021/03/20 00:55:23;;;;;;;22.95;7.63;;;19.90;77.40;;;;;;4992183;28;95990;-53
2021/03/20 00:57:55;;;;;;;19.70;7.10;;;20.00;77.40;;;;;;4987667;28;95985;-52
2021/03/20 01:00:28;;;;;;;20.02;7.00;;;20.00;77.30;;;;;;4989403;28;95755;-53
2021/03/20 01:03:00;;;;;;;14.07;6.20;;;20.10;77.30;;;;;;4995417;28;95884;-51
2021/03/20 01:05:30;;;;;;;17.95;6.97;;;20.10;77.10;;;;;;4984399;28;96543;-53
2021/03/20 01:08:02;;;;;;;16.02;5.75;;;20.10;77.10;;;;;;4987067;28;95736;-54
2021/03/20 01:10:33;;;;;;;19.45;7.43;;;20.20;77.10;;;;;;4985256;28;95638;-56
2021/03/20 01:13:03;;;;;;;13.50;5.47;;;20.20;77.00;;;;;;4988463;28;95698;-55
2021/03/20 01:15:34;;;;;;;18.30;6.88;;;20.20;77.00;;;;;;4977248;28;96503;-55
2021/03/20 01:18:07;;;;;;;19.55;6.28;;;20.20;76.90;;;;;;4988274;28;95917;-52
2021/03/20 01:20:37;;;;;;;16.83;6.70;;;20.30;76.90;;;;;;4986461;28;96597;-52
2021/03/20 01:23:07;;;;;;;16.42;5.78;;;20.30;77.50;;;;;;4991003;28;95794;-54
2021/03/20 01:25:39;;;;;;;17.83;6.43;;;20.30;76.90;;;;;;4984462;28;96360;-51
2021/03/20 01:28:09;;;;;;;16.80;6.68;;;20.30;76.80;;;;;;4988450;28;95985;-55
2021/03/20 01:30:42;;;;;;;20.23;6.50;;;20.40;76.80;;;;;;4979857;28;95739;-55
2021/03/20 01:33:13;;;;;;;10.88;5.65;;;20.40;76.70;;;;;;4988236;28;95425;-53
2021/03/20 01:35:43;;;;;;;16.80;6.80;;;20.40;76.60;;;;;;4984970;28;96397;-53
2021/03/20 01:38:14;;;;;;;;;;;20.50;76.60;;;;;;4989036;28;95825;-51
2021/03/20 01:40:49;;;;;;;16.73;7.03;;;20.50;76.50;;;;;;4988711;28;95585;-54
2021/03/20 01:43:22;;;;;;;16.67;6.25;;;20.50;76.50;;;;;;4994799;28;95604;-50
2021/03/20 01:45:52;;;;;;;14.80;5.60;;;20.60;76.50;;;;;;4979469;28;96158;-55
2021/03/20 01:48:36;;;;;;;12.40;5.50;;;20.50;76.40;;;;;;4987182;28;95894;-53
2021/03/20 01:51:12;;;;;;;17.33;6.05;;;20.60;76.50;;;;;;4992750;28;95238;-53
2021/03/20 01:53:47;;;;;;;13.10;5.47;;;20.60;76.50;;;;;;4987763;28;95890;-53
2021/03/20 01:56:21;;;;;;;17.83;6.15;;;20.70;76.50;;;;;;4989394;28;96351;-52
2021/03/20 01:58:52;;;;;;;11.80;4.68;;;20.70;76.40;;;;;;4990620;28;95999;-53
2021/03/20 02:01:28;;;;;;;10.98;4.93;;;20.80;76.20;;;;;;4981638;28;95531;-54
2021/03/20 02:04:00;;;;;;;9.05;4.68;;;20.80;76.20;;;;;;4984397;28;96552;-54
2021/03/20 02:06:32;;;;;;;13.48;4.93;;;20.90;76.10;;;;;;4983278;28;97127;-53
2021/03/20 02:09:07;;;;;;;11.77;4.72;;;20.90;76.10;;;;;;4994529;28;96279;-58
2021/03/20 02:11:55;;;;;;;11.35;4.75;;;20.90;75.90;;;;;;4986442;28;96286;-53
2021/03/20 02:14:49;;;;;;;13.38;4.43;;;21.00;75.90;;;;;;4995914;28;95915;-52
2021/03/20 02:17:26;;;;;;;11.48;4.30;;;21.00;75.80;;;;;;4984433;28;96942;-54
2021/03/20 02:20:29;;;;;;;8.57;4.10;;;21.00;75.80;;;;;;4989014;28;97672;-54
2021/03/20 02:23:11;;;;;;;9.43;4.10;;;21.00;75.70;;;;;;4995454;28;101532;-55
2021/03/20 02:25:52;;;;;;;13.23;4.47;;;21.00;75.60;;;;;;4997829;28;97518;-51
2021/03/20 02:28:52;;;;;;;9.15;3.80;;;21.10;75.70;;;;;;4990444;28;96114;-52
2021/03/20 02:31:48;;;;;;;9.13;3.90;;;21.10;75.60;;;;;;4980347;28;95827;-55
2021/03/20 02:34:41;;;;;;;10.68;4.30;;;21.20;75.50;;;;;;4989784;28;95808;-51
2021/03/20 02:37:26;;;;;;;6.95;4.07;;;21.10;75.40;;;;;;4974737;28;96164;-55
2021/03/20 02:40:18;;;;;;;9.70;4.32;;;21.20;75.50;;;;;;4993004;28;96469;-55
2021/03/20 02:43:20;;;;;;;7.90;3.65;;;21.20;75.50;;;;;;4989611;28;96414;-52
2021/03/20 02:46:04;;;;;;;7.25;3.70;;;21.20;75.50;;;;;;4992169;28;96017;-54
2021/03/20 02:48:53;;;;;;;7.05;3.05;;;21.20;75.50;;;;;;4995628;28;95741;-55
2021/03/20 02:51:32;;;;;;;7.43;3.50;;;21.30;75.50;;;;;;4989237;28;96319;-53
2021/03/20 02:54:28;;;;;;;8.05;2.90;;;21.30;75.50;;;;;;4985577;28;96212;-57
2021/03/20 02:57:12;;;;;;;7.70;3.42;;;21.30;75.50;;;;;;5001809;28;95907;-53
2021/03/20 02:59:50;;;;;;;6.07;3.80;;;21.30;75.50;;;;;;4989790;28;95918;-51
2021/03/20 03:02:23;;;;;;;6.30;3.53;;;21.30;75.40;;;;;;4987614;28;97119;-54
2021/03/20 03:05:16;;;;;;;8.63;3.80;;;21.40;75.50;;;;;;4994800;28;95775;-56
2021/03/20 03:08:12;;;;;;;6.43;2.90;;;21.40;75.40;;;;;;4993781;28;95554;-53
2021/03/20 03:11:05;;;;;;;7.55;3.95;;;21.40;75.40;;;;;;4976373;28;97539;-52
2021/03/20 03:13:49;;;;;;;7.60;3.67;;;21.50;75.40;;;;;;4981390;28;103446;-52
2021/03/20 03:16:33;;;;;;;8.75;4.65;;;21.50;75.30;;;;;;4987750;28;95674;-53
2021/03/20 03:19:11;;;;;;;9.18;3.63;;;21.50;75.10;;;;;;4987741;28;95453;-53
2021/03/20 03:21:46;;;;;;;8.60;4.00;;;21.60;75.10;;;;;;4986090;28;95646;-52
2021/03/20 03:24:24;;;;;;;8.73;3.60;;;21.60;74.90;;;;;;4996291;28;102799;-53
2021/03/20 03:27:08;;;;;;;7.50;3.63;;;21.70;74.80;;;;;;4986024;28;96505;-52
2021/03/20 03:29:43;;;;;;;9.95;4.63;;;21.70;74.80;;;;;;4986879;28;99714;-52
2021/03/20 03:32:40;;;;;;;8.30;4.35;;;21.70;74.60;;;;;;4980866;28;96066;-51
2021/03/20 03:35:38;;;;;;;5.43;3.33;;;21.80;74.50;;;;;;4991457;28;96793;-49
2021/03/20 03:38:16;;;;;;;9.68;3.95;;;21.80;74.50;;;;;;4982257;28;95531;-55
2021/03/20 03:40:56;;;;;;;8.63;3.83;;;21.80;74.20;;;;;;4984335;28;95594;-51
2021/03/20 03:43:28;;;;;;;7.50;4.32;;;21.90;74.30;;;;;;4986740;28;95777;-49
2021/03/20 03:46:00;;;;;;;6.20;4.40;;;22.00;74.20;;;;;;4975279;28;98700;-56
2021/03/20 03:48:33;;;;;;;7.60;4.03;;;22.10;74.10;;;;;;4980163;28;96346;-51
2021/03/20 03:51:14;;;;;;;8.85;4.22;;;22.10;74.00;;;;;;4983943;28;95183;-52
2021/03/20 03:53:46;;;;;;;8.50;4.57;;;22.20;73.90;;;;;;4988084;28;95896;-53
2021/03/20 03:56:32;;;;;;;8.18;4.85;;;22.20;73.90;;;;;;4980799;28;96116;-51
2021/03/20 03:59:16;;;;;;;8.40;4.80;;;22.20;73.70;;;;;;4984789;28;95986;-50
2021/03/20 04:02:29;;;;;;;7.93;3.95;;;22.20;73.60;;;;;;4976215;28;96122;-53
2021/03/20 04:05:12;;;;;;;9.40;4.50;;;22.20;73.60;;;;;;4983771;28;98453;-50
2021/03/20 04:07:52;;;;;;;6.38;4.40;;;22.20;73.40;;;;;;4984773;28;98541;-51
2021/03/20 04:10:50;;;;;;;7.45;4.32;;;22.30;73.20;;;;;;4984892;28;97875;-51
2021/03/20 04:14:09;;;;;;;9.90;5.70;;;22.30;73.30;;;;;;4990833;28;95693;-52
2021/03/20 04:17:07;;;;;;;12.10;5.93;;;22.30;72.90;;;;;;4956628;28;95857;-54
2021/03/20 04:20:01;;;;;;;9.30;5.32;;;22.30;72.80;;;;;;5002740;28;96606;-52
2021/03/20 04:22:44;;;;;;;9.15;5.88;;;22.30;72.80;;;;;;4983373;28;96003;-53
2021/03/20 04:25:46;;;;;;;10.50;5.50;;;22.30;72.60;;;;;;4996870;28;95155;-54
2021/03/20 04:28:44;;;;;;;6.80;5.05;;;22.30;72.60;;;;;;4993777;28;95877;-53
2021/03/20 04:31:33;;;;;;;11.85;5.00;;;22.40;72.50;;;;;;4981582;28;96166;-52
2021/03/20 04:34:32;;;;;;;8.25;5.88;;;22.40;72.70;;;;;;4983420;28;95465;-50
2021/03/20 04:37:15;;;;;;;7.57;4.95;;;22.40;72.40;;;;;;4980970;28;95766;-53
2021/03/20 04:39:53;;;;;;;8.52;5.07;;;22.40;72.20;;;;;;5004327;28;95673;-54
2021/03/20 04:42:35;;;;;;;8.43;5.10;;;22.40;72.90;;;;;;4991485;28;101841;-54
2021/03/20 04:45:28;;;;;;;8.48;5.03;;;22.40;72.30;;;;;;4985279;28;95922;-52
2021/03/20 04:48:13;;;;;;;8.52;4.90;;;22.40;71.80;;;;;;4986511;28;95913;-52
2021/03/20 04:51:15;;;;;;;11.95;5.70;;;22.40;72.10;;;;;;4984409;28;97359;-52
2021/03/20 04:53:49;;;;;;;8.55;5.22;;;22.50;71.90;;;;;;4979055;28;96905;-53
2021/03/20 04:56:23;;;;;;;9.63;5.03;;;22.50;71.70;;;;;;4993247;28;95523;-53
2021/03/20 04:59:04;;;;;;;5.63;4.22;;;22.50;71.70;;;;;;4981732;28;98066;-49
2021/03/20 05:01:53;;;;;;;10.43;5.55;;;22.50;71.50;;;;;;4985142;28;95324;-51
2021/03/20 05:04:32;;;;;;;7.53;4.30;;;22.50;71.60;;;;;;4983269;28;97195;-50
2021/03/20 05:07:04;;;;;;;6.25;4.18;;;22.50;71.30;;;;;;4984249;28;98094;-53
2021/03/20 05:09:38;;;;;;;9.80;5.38;;;22.60;71.10;;;;;;4973827;28;96684;-50
2021/03/20 05:12:18;;;;;;;6.90;4.78;;;22.50;70.90;;;;;;4991730;28;95708;-53
2021/03/20 05:14:57;;;;;;;8.50;4.70;;;22.50;70.80;;;;;;4983753;28;96771;-51
2021/03/20 05:17:32;;;;;;;6.25;4.60;;;22.50;70.90;;;;;;4988402;28;95432;-54
2021/03/20 05:20:08;;;;;;;7.25;4.07;;;22.50;70.80;;;;;;4987510;28;95962;-50
2021/03/20 05:22:39;;;;;;;6.70;4.97;;;22.50;70.70;;;;;;4985078;28;95811;-49
2021/03/20 05:25:12;;;;;;;;;;;22.60;71.20;;;;;;4983360;28;96108;-49
2021/03/20 05:27:48;;;;;;;6.00;4.20;;;22.60;70.50;;;;;;4987764;28;96024;-50
2021/03/20 05:30:25;;;;;;;7.03;4.32;;;22.50;70.50;;;;;;4978058;28;97540;-53
2021/03/20 05:32:56;;;;;;;5.55;4.47;;;22.50;70.50;;;;;;5004154;28;96465;-49
2021/03/20 05:35:28;;;;;;;6.17;4.17;;;22.50;70.60;;;;;;4983365;28;96879;-51
2021/03/20 05:38:02;;;;;;;10.07;4.78;;;22.60;70.10;;;;;;4991442;28;96101;-54
2021/03/20 05:40:35;;;;;;;7.32;3.85;;;22.50;70.20;;;;;;4981512;28;95982;-50
2021/03/20 05:43:38;;;;;;;7.90;4.63;;;22.70;70.50;;;;;;4984383;28;95858;-47
2021/03/20 05:46:46;;;;;;;5.07;3.97;;;22.80;70.40;;;;;;4978312;28;95999;-50
2021/03/20 05:49:20;;;;;;;4.90;3.85;;;23.10;70.10;;;;;;4985563;28;100871;-52
2021/03/20 05:52:23;;;;;;;6.18;3.88;;;23.30;69.60;;;;;;5001358;28;95969;-51
2021/03/20 05:55:11;;;;;;;5.88;3.97;;;23.60;69.30;;;;;;4963547;28;95433;-48
2021/03/20 05:57:59;;;;;;;4.28;3.72;;;23.80;68.90;;;;;;4987351;28;96552;-51
2021/03/20 06:00:47;;;;;;;5.60;3.85;;;24.00;68.40;;;;;;4984058;28;96716;-51
2021/03/20 06:03:39;;;;;;;4.80;3.05;;;24.20;68.30;;;;;;4990298;28;95302;-47
2021/03/20 06:06:34;;;;;;;4.65;3.30;;;24.30;68.00;;;;;;4986962;28;96187;-48
2021/03/20 06:09:24;;;;;;;4.22;3.30;;;24.40;67.80;;;;;;4986407;28;97029;-54
2021/03/20 06:12:21;;;;;;;6.40;3.40;;;24.50;67.70;;;;;;4997259;28;97738;-52
2021/03/20 06:15:08;;;;;;;5.57;3.70;;;24.40;66.50;;;;;;4988365;28;95761;-51
2021/03/20 06:18:16;;;;;;;9.13;3.75;;;24.20;67.20;;;;;;4986175;28;95448;-52
2021/03/20 06:21:12;;;;;;;5.82;3.10;;;23.90;67.90;;;;;;4989767;28;97965;-53
2021/03/20 06:23:52;;;;;;;5.03;3.55;;;23.80;68.30;;;;;;4985136;28;95705;-53
2021/03/20 06:26:43;;;;;;;5.95;3.47;;;23.60;68.70;;;;;;5001375;28;96038;-52
2021/03/20 06:29:36;;;;;;;4.50;3.00;;;23.50;68.70;;;;;;4984051;28;95854;-53
2021/03/20 06:32:45;;;;;;;5.00;3.40;;;23.40;68.90;;;;;;4981901;28;96453;-53
2021/03/20 06:35:17;;;;;;;8.10;3.50;;;23.40;69.10;;;;;;4906479;28;95744;-61
2021/03/20 06:37:56;;;;;;;12.18;3.78;;;23.30;69.60;;;;;;4902229;28;97229;-55
2021/03/20 06:41:19;;;;;;;5.25;3.33;;;23.30;70.10;;;;;;4907400;28;95984;-54
2021/03/20 06:43:56;;;;;;;8.35;3.88;;;23.20;69.90;;;;;;4856478;28;98318;-56
2021/03/20 06:46:35;;;;;;;6.85;3.50;;;23.20;70.50;;;;;;4902808;28;99442;-53
2021/03/20 06:49:41;;;;;;;7.43;3.08;;;23.10;70.70;;;;;;4904086;28;95869;-55
2021/03/20 06:52:18;;;;;;;7.90;3.35;;;23.10;70.70;;;;;;4907602;28;96027;-54
2021/03/20 06:55:03;;;;;;;5.15;3.30;;;23.00;70.70;;;;;;4904484;28;96455;-51
2021/03/20 06:57:34;;;;;;;7.53;3.90;;;23.00;70.70;;;;;;4907675;28;95968;-51
2021/03/20 07:00:21;;;;;;;5.47;3.50;;;22.90;70.90;;;;;;4904382;28;96435;-48
2021/03/20 07:03:37;;;;;;;9.27;4.35;;;23.00;71.10;;;;;;4905818;28;96490;-61
2021/03/20 07:06:36;;;;;;;8.63;5.55;;;22.90;70.70;;;;;;4905831;28;96070;-51
2021/03/20 07:09:08;;;;;;;5.50;4.25;;;22.90;70.80;;;;;;4937392;28;96205;-52
2021/03/20 07:11:43;;;;;;;7.40;5.15;;;22.90;70.90;;;;;;4989515;28;96079;-53
2021/03/20 07:14:44;;;;;;;7.10;5.18;;;22.80;71.00;;;;;;4987650;28;96070;-49
2021/03/20 07:17:25;;;;;;;9.90;4.30;;;22.80;71.00;;;;;;4967704;28;96814;-48
2021/03/20 07:20:06;;;;;;;7.15;5.03;;;22.80;71.10;;;;;;4964849;28;95792;-51
2021/03/20 07:22:38;;;;;;;7.85;4.97;;;22.80;71.20;;;;;;4968895;28;96060;-49
2021/03/20 07:25:24;;;;;;;8.25;5.35;;;22.70;71.00;;;;;;4965819;28;95714;-51
2021/03/20 07:28:07;;;;;;;8.25;5.38;;;22.70;71.10;;;;;;4968755;28;97795;-49
2021/03/20 07:30:59;;;;;;;9.85;5.70;;;22.70;71.10;;;;;;4962737;28;96154;-48
2021/03/20 07:33:30;;;;;;;;;;;22.70;71.10;;;;;;4967531;28;95831;-51
2021/03/20 07:36:23;;;;;;;7.13;4.72;;;22.70;71.40;;;;;;4966701;28;95654;-52
2021/03/20 07:39:19;;;;;;;6.95;5.28;;;22.70;71.30;;;;;;4965314;28;96201;-47
2021/03/20 07:41:59;;;;;;;6.32;4.72;;;22.60;71.20;;;;;;4965286;28;95736;-47
2021/03/20 07:44:58;;;;;;;7.28;4.80;;;22.50;71.30;;;;;;4967759;28;96481;-47
2021/03/20 07:47:34;;;;;;;7.25;4.47;;;22.60;70.70;;;;;;4966346;28;96410;-49
2021/03/20 07:50:08;;;;;;;7.88;4.25;;;22.50;70.40;;;;;;4968476;28;96882;-49
2021/03/20 07:52:39;;;;;;;5.32;4.25;;;22.40;70.20;;;;;;4972020;28;95794;-47
2021/03/20 07:55:16;;;;;;;6.53;4.50;;;22.40;70.10;;;;;;4967398;28;95388;-49
2021/03/20 07:57:59;;;;;;;5.00;4.30;;;22.40;69.80;;;;;;4965735;28;95780;-48
2021/03/20 08:00:47;;;;;;;5.57;4.15;;;22.40;69.50;;;;;;4966671;28;97079;-51
2021/03/20 08:03:20;;;;;;;7.07;4.95;;;22.30;69.60;;;;;;4983020;28;102360;-47
2021/03/20 08:05:50;;;;;;;6.03;4.47;;;22.30;70.10;;;;;;4988801;28;96101;-51
2021/03/20 08:08:28;;;;;;;5.65;4.53;;;22.30;70.40;;;;;;4984181;28;96094;-48
2021/03/20 08:11:00;;;;;;;7.57;4.40;;;22.30;70.60;;;;;;4984954;28;96017;-51
2021/03/20 08:13:46;;;;;;;7.53;4.70;;;22.20;70.60;;;;;;4981519;28;96074;-51
2021/03/20 08:16:20;;;;;;;8.85;4.78;;;22.20;70.80;;;;;;4983157;28;95977;-50
2021/03/20 08:18:55;;;;;;;6.93;3.97;;;22.20;70.80;;;;;;4981975;28;95689;-49
2021/03/20 08:21:41;;;;;;;5.50;4.25;;;22.30;70.90;;;;;;4998654;28;96945;-47
2021/03/20 08:24:26;;;;;;;5.22;3.78;;;22.20;70.90;;;;;;4980995;28;98822;-48
2021/03/20 08:27:14;;;;;;;4.97;4.00;;;22.20;70.70;;;;;;4981159;28;96622;-48
2021/03/20 08:30:23;;;;;;;5.93;3.80;;;22.20;70.30;;;;;;4981884;28;95735;-48
2021/03/20 08:33:20;;;;;;;4.93;4.28;;;22.10;70.30;;;;;;4983348;28;102337;-50
2021/03/20 08:36:11;;;;;;;6.00;4.53;;;22.10;70.60;;;;;;4980592;28;95804;-48
2021/03/20 08:38:49;;;;;;;4.72;3.80;;;22.00;70.80;;;;;;4985166;28;96006;-49
2021/03/20 08:41:42;;;;;;;5.93;4.55;;;22.00;71.00;;;;;;4980187;28;95799;-49
2021/03/20 08:44:26;;;;;;;3.88;3.42;;;22.00;71.00;;;;;;4982548;28;96154;-50
2021/03/20 08:47:07;;;;;;;6.80;3.78;;;22.00;71.10;;;;;;4976645;28;97795;-49
2021/03/20 08:50:15;;;;;;;7.00;3.55;;;22.00;71.10;;;;;;4984866;28;95571;-53
2021/03/20 08:52:50;;;;;;;5.20;3.38;;;22.00;71.20;;;;;;4984577;28;95650;-51
2021/03/20 08:55:50;;;;;;;5.20;3.63;;;22.00;71.10;;;;;;4979880;28;96227;-48
2021/03/20 08:58:39;;;;;;;4.65;3.63;;;22.00;70.90;;;;;;4981031;28;96557;-48
2021/03/20 09:01:39;;;;;;;5.85;3.60;;;22.00;71.00;;;;;;4976578;28;97735;-50
2021/03/20 09:04:16;;;;;;;7.03;3.80;;;22.00;71.40;;;;;;4984135;28;95900;-50
2021/03/20 09:06:59;;;;;;;8.10;4.88;;;22.00;71.40;;;;;;4979567;28;97109;-49
2021/03/20 09:09:33;;;;;;;5.53;4.20;;;21.90;71.40;;;;;;4982748;28;95468;-49
2021/03/20 09:12:25;;;;;;;6.97;4.40;;;21.90;71.60;;;;;;4979966;28;96765;-49
2021/03/20 09:14:55;;;;;;;5.32;3.75;;;21.90;71.60;;;;;;4984665;28;95814;-49
2021/03/20 09:17:45;;;;;;;5.30;3.47;;;21.90;71.70;;;;;;4975032;28;97841;-50
2021/03/20 09:20:24;;;;;;;7.30;4.20;;;21.90;71.70;;;;;;4982444;28;96182;-49
2021/03/20 09:22:58;;;;;;;6.20;3.97;;;21.90;71.90;;;;;;4981409;28;95995;-51
2021/03/20 09:25:42;;;;;;;8.73;4.45;;;21.90;71.80;;;;;;4979766;28;96027;-49
2021/03/20 09:28:15;;;;;;;6.07;3.72;;;21.90;71.90;;;;;;4981667;28;96661;-53
2021/03/20 09:30:57;;;;;;;6.43;4.55;;;21.90;72.70;;;;;;4980419;28;96686;-50
2021/03/20 09:33:32;;;;;;;7.10;4.65;;;21.90;72.10;;;;;;4983086;28;95965;-52
2021/03/20 09:36:21;;;;;;;5.65;3.97;;;21.90;72.10;;;;;;4982537;28;95918;-50
2021/03/20 09:38:56;;;;;;;5.97;3.85;;;21.80;72.10;;;;;;4986225;28;96243;-51
2021/03/20 09:41:29;;;;;;;7.93;4.10;;;21.80;72.10;;;;;;4983940;28;96200;-52
2021/03/20 09:44:03;;;;;;;5.82;4.13;;;21.90;72.20;;;;;;4988364;28;95945;-49
2021/03/20 09:46:44;;;;;;;6.90;4.32;;;21.80;72.20;;;;;;4978852;28;96662;-50
2021/03/20 09:49:17;;;;;;;;;;;21.80;72.20;;;;;;4985117;28;96061;-52
2021/03/20 09:51:55;;;;;;;10.57;4.93;;;21.80;72.20;;;;;;4983235;28;95815;-49
2021/03/20 09:54:27;;;;;;;10.23;4.95;;;21.80;72.20;;;;;;4985801;28;96010;-49
2021/03/20 09:57:17;;;;;;;7.78;4.57;;;21.70;72.30;;;;;;4984236;28;103168;-47
2021/03/20 09:59:47;;;;;;;9.30;4.83;;;21.80;72.30;;;;;;4987764;28;96361;-46
2021/03/20 10:02:20;;;;;;;6.13;4.55;;;21.70;72.40;;;;;;4979979;28;96013;-47
2021/03/20 10:04:54;;;;;;;7.00;4.55;;;21.70;72.50;;;;;;4987702;28;96510;-46
2021/03/20 10:07:26;;;;;;;7.32;4.78;;;21.70;72.50;;;;;;4981521;28;96346;-46
2021/03/20 10:10:05;;;;;;;8.20;4.72;;;21.70;72.50;;;;;;4986181;28;97225;-47
2021/03/20 10:12:46;;;;;;;6.82;4.32;;;21.70;72.50;;;;;;4983190;28;95942;-46
2021/03/20 10:15:35;;;;;;;6.97;4.67;;;21.70;72.60;;;;;;4983492;28;95593;-46
2021/03/20 10:18:08;;;;;;;7.65;4.70;;;21.70;72.50;;;;;;4983183;28;95772;-46
2021/03/20 10:20:43;;;;;;;8.18;4.32;;;21.70;72.60;;;;;;4984055;28;96300;-47
2021/03/20 10:23:34;;;;;;;7.38;4.78;;;21.70;72.70;;;;;;4983445;28;96184;-46
2021/03/20 10:26:14;;;;;;;7.93;5.30;;;21.70;72.60;;;;;;4985659;28;96788;-45
2021/03/20 10:28:47;;;;;;;7.47;5.60;;;21.60;72.60;;;;;;4986206;28;96040;-47
2021/03/20 10:31:18;;;;;;;6.07;5.32;;;21.60;72.60;;;;;;4977758;28;96486;-45
2021/03/20 10:33:50;;;;;;;8.45;5.22;;;21.60;72.60;;;;;;4984260;28;96599;-46
2021/03/20 10:36:22;;;;;;;;;;;21.60;72.70;;;;;;4982003;28;96183;-46
2021/03/20 10:39:22;;;;;;;6.78;5.13;;;21.60;72.80;;;;;;4987347;28;95679;-47
2021/03/20 10:41:56;;;;;;;7.57;4.93;;;21.60;72.80;;;;;;4981009;28;96573;-48
2021/03/20 10:44:38;;;;;;;6.22;4.55;;;21.60;72.70;;;;;;4983965;28;96141;-46
2021/03/20 10:47:23;;;;;;;7.57;5.63;;;21.60;72.70;;;;;;4979829;28;95491;-45
2021/03/20 10:50:04;;;;;;;7.60;4.57;;;21.50;72.80;;;;;;4987437;28;95787;-48
2021/03/20 10:52:37;;;;;;;8.90;5.38;;;21.60;72.90;;;;;;4986179;28;96338;-46
2021/03/20 10:55:24;;;;;;;9.52;4.60;;;21.60;72.80;;;;;;5001057;28;96201;-49
2021/03/20 10:57:54;;;;;;;7.65;4.70;;;21.50;72.80;;;;;;4999009;28;95732;-46
2021/03/20 11:00:45;;;;;;;9.02;5.25;;;21.50;72.80;;;;;;4982289;28;96232;-45
2021/03/20 11:03:16;;;;;;;8.35;5.20;;;21.60;72.80;;;;;;4984389;28;96355;-46
2021/03/20 11:05:48;;;;;;;9.32;5.20;;;21.60;72.90;;;;;;4981099;28;96233;-47
2021/03/20 11:08:24;;;;;;;9.30;5.90;;;21.50;72.80;;;;;;4984816;28;96003;-45
2021/03/20 11:11:20;;;;;;;7.30;5.53;;;21.50;72.80;;;;;;4983642;28;95497;-47
2021/03/20 11:13:52;;;;;;;9.40;6.13;;;21.50;72.80;;;;;;4985251;28;97128;-49
2021/03/20 11:16:27;;;;;;;8.13;5.60;;;21.50;72.80;;;;;;4979443;28;96968;-45
2021/03/20 11:19:27;;;;;;;6.88;5.50;;;21.50;72.90;;;;;;4984236;28;97697;-48
2021/03/20 11:22:03;;;;;;;8.05;5.10;;;21.50;72.90;;;;;;4981893;28;96516;-48
2021/03/20 11:24:35;;;;;;;10.07;6.18;;;21.50;72.90;;;;;;4984815;28;96135;-46
2021/03/20 11:27:27;;;;;;;7.28;5.35;;;21.50;72.90;;;;;;4982005;28;96133;-46
2021/03/20 11:30:05;;;;;;;8.10;5.65;;;21.50;72.80;;;;;;4984648;28;95926;-45
2021/03/20 11:32:39;;;;;;;8.32;5.63;;;21.40;72.90;;;;;;4977973;28;97271;-46
2021/03/20 11:35:29;;;;;;;9.45;6.28;;;21.50;73.10;;;;;;4983998;28;96096;-46
2021/03/20 11:38:02;;;;;;;7.20;4.70;;;21.40;73.10;;;;;;4981844;28;96567;-48
2021/03/20 11:40:41;;;;;;;8.25;5.28;;;21.50;73.50;;;;;;4984318;28;96045;-47
2021/03/20 11:43:30;;;;;;;8.30;5.70;;;21.70;73.40;;;;;;4985658;28;96651;-46
2021/03/20 11:46:16;;;;;;;8.48;4.93;;;21.90;73.00;;;;;;4982236;28;96148;-48
2021/03/20 11:48:56;;;;;;;8.07;4.88;;;22.10;71.60;;;;;;4984361;28;95736;-54
2021/03/20 11:51:44;;;;;;;5.53;4.75;;;22.30;71.20;;;;;;4987175;28;96526;-48
2021/03/20 11:54:38;;;;;;;7.35;4.90;;;22.40;70.70;;;;;;4985294;28;96446;-52
2021/03/20 11:57:26;;;;;;;6.95;5.22;;;22.50;70.20;;;;;;4988685;28;95915;-49
2021/03/20 11:59:56;;;;;;;8.52;5.47;;;22.60;69.90;;;;;;4982520;28;96670;-51
2021/03/20 12:02:25;;;;;;;8.23;5.20;;;22.60;69.80;;;;;;4983252;28;96129;-51
2021/03/20 12:05:13;;;;;;;8.27;5.38;;;22.50;69.90;;;;;;4983369;28;95919;-51
2021/03/20 12:07:45;;;;;;;8.23;5.68;;;22.40;70.10;;;;;;4987580;28;97986;-50
2021/03/20 12:10:23;;;;;;;7.15;5.32;;;22.30;70.30;;;;;;4983426;28;100919;-52
2021/03/20 12:12:57;;;;;;;6.53;5.40;;;22.30;70.50;;;;;;4987014;28;96339;-49
2021/03/20 12:15:36;;;;;;;9.80;6.38;;;22.20;70.50;;;;;;4979827;28;96492;-53
2021/03/20 12:18:20;;;;;;;8.55;5.35;;;22.20;70.90;;;;;;4983246;28;96622;-48
2021/03/20 12:20:52;;;;;;;7.00;5.57;;;22.10;70.90;;;;;;4991645;28;95822;-51
2021/03/20 12:23:24;;;;;;;6.95;5.15;;;22.10;71.10;;;;;;4982909;28;95756;-51
2021/03/20 12:26:00;;;;;;;7.63;5.57;;;22.00;71.00;;;;;;4981836;28;95346;-52
2021/03/20 12:28:43;;;;;;;5.90;4.78;;;22.00;71.00;;;;;;4983131;28;96145;-50
2021/03/20 12:31:17;;;;;;;7.75;5.57;;;21.90;71.20;;;;;;4976734;28;96595;-49
2021/03/20 12:33:55;;;;;;;7.93;6.07;;;21.90;71.20;;;;;;4983961;28;95800;-54
2021/03/20 12:36:26;;;;;;;5.82;5.07;;;21.90;71.40;;;;;;4995391;28;96263;-50
2021/03/20 12:38:59;;;;;;;9.85;6.00;;;21.90;71.50;;;;;;4982246;28;96094;-51
2021/03/20 12:41:34;;;;;;;7.07;5.07;;;21.80;71.40;;;;;;4979295;28;96409;-50
2021/03/20 12:44:19;;;;;;;9.50;5.35;;;21.80;71.50;;;;;;4983260;28;95859;-51
2021/03/20 12:47:07;;;;;;;8.77;5.72;;;21.80;71.70;;;;;;4978597;28;96509;-50
2021/03/20 12:49:40;;;;;;;8.93;6.10;;;21.80;71.70;;;;;;4985435;28;97081;-49
2021/03/20 12:52:21;;;;;;;8.38;5.88;;;21.80;71.90;;;;;;4981716;28;96451;-49
2021/03/20 12:54:57;;;;;;;10.02;5.63;;;21.70;71.90;;;;;;4982811;28;95728;-50
2021/03/20 12:57:31;;;;;;;8.88;5.30;;;21.70;71.90;;;;;;4984172;28;96260;-52
2021/03/20 13:00:04;;;;;;;7.03;5.30;;;21.70;72.00;;;;;;4982843;28;96247;-50
2021/03/20 13:02:35;;;;;;;7.38;5.53;;;21.70;72.00;;;;;;4976548;28;96044;-48
2021/03/20 13:05:05;;;;;;;;;;;21.70;71.90;;;;;;4984481;28;95977;-49
2021/03/20 13:07:34;;;;;;;7.75;5.60;;;21.70;71.90;;;;;;4981816;28;96876;-49
2021/03/20 13:10:06;;;;;;;8.63;5.85;;;21.60;72.00;;;;;;4982960;28;96193;-50
2021/03/20 13:12:38;;;;;;;8.07;5.28;;;21.60;72.00;;;;;;4980254;28;96083;-49
2021/03/20 13:15:11;;;;;;;8.80;5.03;;;21.60;72.10;;;;;;4980795;28;95948;-48
2021/03/20 13:17:44;;;;;;;8.18;5.25;;;21.60;72.10;;;;;;4979063;28;95760;-50
2021/03/20 13:20:17;;;;;;;8.98;5.55;;;21.60;72.10;;;;;;4983162;28;95972;-50
2021/03/20 13:22:48;;;;;;;7.90;5.50;;;21.50;72.20;;;;;;4978516;28;97810;-50
2021/03/20 13:25:28;;;;;;;8.85;5.85;;;21.50;72.10;;;;;;4982908;28;95798;-48
2021/03/20 13:27:59;;;;;;;8.27;5.75;;;21.50;72.10;;;;;;4979333;28;95931;-53
2021/03/20 13:30:35;;;;;;;8.63;5.40;;;21.50;72.10;;;;;;4980665;28;97638;-51
2021/03/20 13:33:05;;;;;;;9.57;5.38;;;21.50;72.20;;;;;;4980396;28;97063;-48
2021/03/20 13:35:39;;;;;;;9.00;5.18;;;21.50;72.30;;;;;;4983143;28;97294;-49
2021/03/20 13:38:11;;;;;;;8.15;5.68;;;21.50;72.50;;;;;;4979565;28;96199;-49
2021/03/20 13:40:44;;;;;;;6.30;4.53;;;21.50;72.40;;;;;;4983374;28;96637;-52
2021/03/20 13:43:15;;;;;;;6.03;4.65;;;21.50;72.50;;;;;;4978933;28;95853;-48
2021/03/20 13:45:45;;;;;;;8.27;5.43;;;21.50;72.50;;;;;;4978666;28;95976;-49
2021/03/20 13:48:17;;;;;;;6.90;5.05;;;21.50;72.50;;;;;;4984897;28;95589;-55
2021/03/20 13:50:49;;;;;;;7.32;5.30;;;21.40;72.60;;;;;;4986024;28;96144;-53
2021/03/20 13:53:25;;;;;;;5.53;4.50;;;21.40;72.80;;;;;;4989671;28;95853;-54
2021/03/20 13:55:57;;;;;;;6.03;4.82;;;21.30;72.80;;;;;;4994013;28;95564;-54